Westville Center, New York
Current Conditions -  °F | °C
As of 5:53 PM on Tuesday 27 Jan 2015 (Local Time) from KMSS Reporting Station
Few Clouds Few Clouds  
Wind Chill: 10°   Ceiling: Unl
Heat Index: 10°   Visibility: 10mi
Dew Point: -4°   Wind: 0mph
Humidity: 53%   Direction: NA
Pressure: 30.07"   Gusts: NA
Location:  44.9516°N, 74.3293°W
Report Text: KMSS 272253Z AUTO 00000KT 10SM FEW043 M12/M20 A3007 RMK AO2 SLP191 T11221200
Loading
Personal Weather Stations






























Interactive Weather Map New forecast layout! Learn more

10-Day Weather Forecast

Advertisements
Track Severe Weather on mobile